Time;durP1;ratioP1;P1;durP2;ratioP2;P2;SDS_P1;SDS_P2;PMS_P1;PMS_P2;Temp;Humidity;BMP_temperature;BMP_pressure;BME280_temperature;BME280_humidity;BME280_pressure;Samples;Min_cycle;Max_cycle;Signal;HPM_P1;HPM_P2
2023/04/22 00:02:07;;;;;;;9.75;2.80;;;12.50;99.90;;;;;;4968492;28;20134;-68
2023/04/22 00:04:33;;;;;;;4.68;2.25;;;12.50;99.90;;;;;;4966610;28;20030;-68
2023/04/22 00:06:59;;;;;;;4.55;2.20;;;12.40;99.90;;;;;;4973633;28;20074;-68
2023/04/22 00:09:25;;;;;;;6.43;2.97;;;12.40;99.90;;;;;;4954454;28;20486;-68
2023/04/22 00:11:51;;;;;;;6.63;2.83;;;12.50;99.90;;;;;;4969397;28;20035;-67
2023/04/22 00:14:18;;;;;;;4.50;1.90;;;12.50;99.90;;;;;;4957429;28;20030;-68
2023/04/22 00:16:43;;;;;;;4.80;2.00;;;12.50;99.90;;;;;;4973293;28;20118;-68
2023/04/22 00:19:09;;;;;;;4.55;2.40;;;12.60;99.90;;;;;;4959007;28;20118;-67
2023/04/22 00:21:35;;;;;;;3.15;1.63;;;12.60;99.90;;;;;;4973482;28;20109;-67
2023/04/22 00:24:01;;;;;;;7.78;2.72;;;12.60;99.90;;;;;;4958081;28;20114;-68
2023/04/22 00:26:27;;;;;;;6.88;2.05;;;12.50;99.90;;;;;;4973349;28;20086;-68
2023/04/22 00:28:53;;;;;;;4.03;1.95;;;12.50;99.90;;;;;;4957233;28;20031;-68
2023/04/22 00:31:19;;;;;;;5.43;2.08;;;12.50;99.90;;;;;;4973263;28;20034;-68
2023/04/22 00:33:44;;;;;;;5.70;2.75;;;12.50;99.90;;;;;;4958202;28;20039;-68
2023/04/22 00:36:10;;;;;;;5.53;2.30;;;12.50;99.90;;;;;;4971639;28;20034;-68
2023/04/22 00:38:36;;;;;;;4.28;2.00;;;12.50;99.90;;;;;;4957295;28;20034;-68
2023/04/22 00:41:01;;;;;;;4.47;2.22;;;12.50;99.90;;;;;;4971088;28;20422;-68
2023/04/22 00:43:27;;;;;;;8.25;2.95;;;12.30;99.90;;;;;;4958027;28;20406;-68
2023/04/22 00:45:53;;;;;;;8.57;3.13;;;12.40;99.90;;;;;;4972560;28;20546;-68
2023/04/22 00:48:19;;;;;;;6.75;2.67;;;12.40;99.90;;;;;;4956920;28;20038;-68
2023/04/22 00:50:45;;;;;;;8.27;3.50;;;12.40;99.90;;;;;;4972392;28;20027;-68
2023/04/22 00:53:11;;;;;;;8.25;4.00;;;12.50;99.90;;;;;;4957887;28;20143;-68
2023/04/22 00:55:36;;;;;;;6.25;3.22;;;12.40;99.90;;;;;;4972311;28;20037;-67
2023/04/22 00:58:03;;;;;;;8.05;3.13;;;12.40;99.90;;;;;;4960822;28;20110;-68
2023/04/22 01:00:29;;;;;;;6.65;2.88;;;12.40;99.90;;;;;;4970884;28;20169;-67
2023/04/22 01:02:56;;;;;;;5.60;3.08;;;12.30;99.90;;;;;;4958852;28;20676;-67
2023/04/22 01:05:23;;;;;;;4.70;2.70;;;12.30;99.90;;;;;;4953874;28;20035;-67
2023/04/22 01:07:50;;;;;;;7.00;3.00;;;12.20;99.90;;;;;;4943458;28;20074;-68
2023/04/22 01:10:17;;;;;;;4.85;2.17;;;12.20;99.90;;;;;;4962596;28;20089;-67
2023/04/22 01:12:43;;;;;;;5.50;1.92;;;12.20;99.90;;;;;;4947703;28;20298;-68
2023/04/22 01:15:10;;;;;;;6.47;3.00;;;12.30;99.90;;;;;;4965184;28;20538;-68
2023/04/22 01:17:36;;;;;;;4.10;2.35;;;12.30;99.90;;;;;;4963893;28;20028;-67
2023/04/22 01:20:06;;;;;;;4.32;2.17;;;12.20;99.90;;;;;;4958911;28;20090;-67
2023/04/22 01:22:39;;;;;;;6.05;2.10;;;12.00;99.90;;;;;;4962856;28;20444;-67
2023/04/22 01:25:05;;;;;;;5.43;2.55;;;11.70;99.90;;;;;;4960148;28;20424;-68
2023/04/22 01:27:31;;;;;;;2.83;1.63;;;11.60;99.90;;;;;;4963635;28;20039;-68
2023/04/22 01:29:58;;;;;;;3.63;1.90;;;11.30;99.90;;;;;;4963800;28;20105;-67
2023/04/22 01:32:24;;;;;;;7.18;3.00;;;11.40;99.90;;;;;;4935946;29;20047;-67
2023/04/22 01:34:49;;;;;;;4.60;2.30;;;11.50;99.90;;;;;;4962185;28;20039;-67
2023/04/22 01:37:17;;;;;;;6.85;2.50;;;11.40;99.90;;;;;;4967468;28;20027;-67
2023/04/22 01:39:43;;;;;;;7.20;3.30;;;11.60;99.90;;;;;;4960055;28;20030;-67
2023/04/22 01:42:09;;;;;;;6.25;2.47;;;11.60;99.90;;;;;;4954249;28;20119;-68
2023/04/22 01:44:35;;;;;;;7.22;2.35;;;11.60;99.90;;;;;;4957512;28;20023;-67
2023/04/22 01:47:01;;;;;;;4.55;2.47;;;11.60;99.90;;;;;;4971736;28;20088;-68
2023/04/22 01:49:26;;;;;;;8.80;2.35;;;11.70;99.90;;;;;;4957733;28;20031;-67
2023/04/22 01:51:52;;;;;;;6.05;2.42;;;11.70;99.90;;;;;;4967402;28;20050;-68
2023/04/22 01:54:18;;;;;;;16.10;2.55;;;11.70;99.90;;;;;;4939027;28;20102;-68
2023/04/22 01:56:53;;;;;;;3.28;1.98;;;11.70;99.90;;;;;;4971280;28;20106;-68
2023/04/22 01:59:20;;;;;;;6.15;2.08;;;11.70;99.90;;;;;;4956044;28;20073;-68
2023/04/22 02:01:47;;;;;;;7.05;2.10;;;11.70;99.90;;;;;;4971898;28;20058;-68
2023/04/22 02:04:13;;;;;;;4.75;2.20;;;11.70;99.90;;;;;;4957209;28;20402;-68
2023/04/22 02:06:38;;;;;;;3.75;2.00;;;11.80;99.90;;;;;;4967138;28;20035;-68
2023/04/22 02:09:05;;;;;;;5.07;2.17;;;11.80;99.90;;;;;;4968291;28;20093;-68
2023/04/22 02:11:30;;;;;;;5.18;2.25;;;11.80;99.90;;;;;;4971502;28;20023;-68
2023/04/22 02:13:56;;;;;;;4.93;2.28;;;11.80;99.90;;;;;;4955477;28;20429;-68
2023/04/22 02:16:22;;;;;;;7.05;2.58;;;11.90;99.90;;;;;;4964619;28;20035;-68
2023/04/22 02:18:48;;;;;;;6.55;2.03;;;11.80;99.90;;;;;;4957198;28;20030;-68
2023/04/22 02:21:14;;;;;;;6.32;2.60;;;11.80;99.90;;;;;;4971483;28;20071;-68
2023/04/22 02:23:40;;;;;;;5.40;1.90;;;11.80;99.90;;;;;;4955479;28;20035;-68
2023/04/22 02:26:07;;;;;;;4.38;2.28;;;11.80;99.90;;;;;;4970245;28;20035;-68
2023/04/22 02:28:32;;;;;;;5.93;2.08;;;11.80;99.90;;;;;;4955581;28;20027;-68
2023/04/22 02:31:00;;;;;;;3.42;1.85;;;11.70;99.90;;;;;;4970111;28;20110;-68
2023/04/22 02:33:26;;;;;;;4.18;2.10;;;11.60;99.90;;;;;;4957330;28;20086;-68
2023/04/22 02:35:51;;;;;;;5.38;2.30;;;11.60;99.90;;;;;;4971418;28;20461;-68
2023/04/22 02:38:18;;;;;;;4.22;2.28;;;11.70;99.90;;;;;;4957304;28;20039;-68
2023/04/22 02:40:44;;;;;;;5.20;2.22;;;11.60;99.90;;;;;;4970113;28;20022;-68
2023/04/22 02:43:10;;;;;;;4.88;2.80;;;11.60;99.90;;;;;;4957230;28;20098;-68
2023/04/22 02:45:35;;;;;;;6.68;2.97;;;11.60;99.90;;;;;;4971237;28;20106;-68
2023/04/22 02:48:01;;;;;;;4.15;1.92;;;11.40;99.90;;;;;;4958842;28;20031;-68
2023/04/22 02:50:27;;;;;;;3.60;2.30;;;11.20;99.90;;;;;;4971487;28;20027;-68
2023/04/22 02:52:52;;;;;;;3.92;2.55;;;11.10;99.90;;;;;;4958464;28;20032;-68
2023/04/22 02:55:18;;;;;;;4.43;2.00;;;11.20;99.90;;;;;;4969712;28;20101;-68
2023/04/22 02:57:44;;;;;;;7.28;2.60;;;11.10;99.90;;;;;;4965534;28;20123;-68
2023/04/22 03:00:10;;;;;;;4.70;2.53;;;11.20;99.90;;;;;;4968211;28;20097;-68
2023/04/22 03:02:37;;;;;;;4.30;2.38;;;11.30;99.90;;;;;;4958362;28;20440;-67
2023/04/22 03:05:03;;;;;;;6.68;3.30;;;11.30;99.90;;;;;;4980897;23;20614;-71
2023/04/22 03:07:29;;;;;;;6.57;2.70;;;11.20;99.90;;;;;;4962596;28;20114;-70
2023/04/22 03:09:54;;;;;;;5.63;2.42;;;11.30;99.90;;;;;;4973253;28;20114;-71
2023/04/22 03:12:21;;;;;;;8.85;2.72;;;11.40;99.90;;;;;;4965772;28;20101;-71
2023/04/22 03:14:46;;;;;;;6.03;2.55;;;11.40;99.90;;;;;;4973993;28;20503;-71
2023/04/22 03:17:12;;;;;;;6.60;2.03;;;11.40;99.90;;;;;;4972808;28;20142;-71
2023/04/22 03:19:38;;;;;;;5.13;2.42;;;11.40;99.90;;;;;;4974091;28;20022;-70
2023/04/22 03:22:05;;;;;;;7.53;2.35;;;11.30;99.90;;;;;;4973031;28;20088;-70
2023/04/22 03:24:30;;;;;;;6.43;3.22;;;11.40;99.90;;;;;;4973904;28;20035;-71
2023/04/22 03:26:56;;;;;;;6.05;2.95;;;11.40;99.90;;;;;;4972591;28;20031;-71
2023/04/22 03:29:22;;;;;;;5.00;2.45;;;11.30;99.90;;;;;;4974119;28;20027;-71
2023/04/22 03:31:48;;;;;;;4.55;2.40;;;11.30;99.90;;;;;;4972539;28;20097;-71
2023/04/22 03:34:13;;;;;;;4.00;2.28;;;11.20;99.90;;;;;;4973572;28;20109;-71
2023/04/22 03:36:39;;;;;;;5.65;2.97;;;11.20;99.90;;;;;;4971060;28;20042;-71
2023/04/22 03:39:05;;;;;;;6.93;2.90;;;11.20;99.90;;;;;;4973855;28;20031;-71
2023/04/22 03:41:30;;;;;;;5.70;2.92;;;11.20;99.90;;;;;;4972798;28;20025;-71
2023/04/22 03:43:56;;;;;;;4.85;2.40;;;11.20;99.90;;;;;;4973237;28;20034;-71
2023/04/22 03:46:22;;;;;;;6.85;2.65;;;11.10;99.90;;;;;;4972736;28;20054;-71
2023/04/22 03:48:48;;;;;;;7.75;3.45;;;11.10;99.90;;;;;;4973716;28;20058;-71
2023/04/22 03:51:13;;;;;;;4.60;2.45;;;11.00;99.90;;;;;;4972166;28;20039;-71
2023/04/22 03:53:39;;;;;;;5.43;2.63;;;10.90;99.90;;;;;;4973189;28;20626;-71
2023/04/22 03:56:05;;;;;;;4.68;2.58;;;10.90;99.90;;;;;;4972168;28;20121;-70
2023/04/22 03:58:31;;;;;;;5.97;2.60;;;10.80;99.90;;;;;;4973483;28;20089;-70
2023/04/22 04:00:57;;;;;;;7.05;2.78;;;10.80;99.90;;;;;;4972571;28;20107;-71
2023/04/22 04:03:22;;;;;;;4.53;2.40;;;10.70;99.90;;;;;;4973002;28;20602;-71
2023/04/22 04:05:48;;;;;;;4.45;2.45;;;10.60;99.90;;;;;;4972235;28;20031;-71
2023/04/22 04:08:14;;;;;;;5.75;3.00;;;10.60;99.90;;;;;;4972135;28;20114;-71
2023/04/22 04:10:41;;;;;;;4.55;2.75;;;10.60;99.90;;;;;;4970475;28;20033;-71
2023/04/22 04:13:07;;;;;;;5.03;2.38;;;10.30;99.90;;;;;;4972784;28;20487;-71
2023/04/22 04:15:35;;;;;;;8.77;3.40;;;10.30;99.90;;;;;;4970357;28;20034;-71
2023/04/22 04:18:01;;;;;;;7.85;3.10;;;10.30;99.90;;;;;;4972035;28;20031;-71
2023/04/22 04:20:27;;;;;;;12.93;2.97;;;10.30;99.90;;;;;;4971056;28;20084;-71
2023/04/22 04:22:53;;;;;;;6.55;2.95;;;10.20;99.90;;;;;;4972883;28;20027;-71
2023/04/22 04:25:20;;;;;;;6.55;3.33;;;10.20;99.90;;;;;;4971629;28;20105;-71
2023/04/22 04:27:46;;;;;;;7.00;2.88;;;10.20;99.90;;;;;;4973419;28;20026;-70
2023/04/22 04:30:13;;;;;;;5.85;3.13;;;10.20;99.90;;;;;;4970764;28;20173;-70
2023/04/22 04:32:39;;;;;;;8.02;3.15;;;10.20;99.90;;;;;;4972704;28;20057;-71
2023/04/22 04:35:05;;;;;;;4.72;2.70;;;10.30;99.90;;;;;;4971580;28;20111;-71
2023/04/22 04:37:31;;;;;;;11.65;3.85;;;10.20;99.90;;;;;;4973120;28;20114;-70
2023/04/22 04:40:00;;;;;;;4.95;2.35;;;10.20;99.90;;;;;;4973527;28;20082;-72
2023/04/22 04:42:26;;;;;;;8.00;3.75;;;10.10;99.90;;;;;;4974071;28;20387;-71
2023/04/22 04:44:52;;;;;;;5.20;3.08;;;10.20;99.90;;;;;;4972442;28;20057;-71
2023/04/22 04:47:18;;;;;;;7.05;3.35;;;10.20;99.90;;;;;;4972061;28;20049;-71
2023/04/22 04:49:45;;;;;;;10.18;2.92;;;10.20;99.90;;;;;;4972681;28;20062;-71
2023/04/22 04:52:11;;;;;;;6.25;3.13;;;10.20;99.90;;;;;;4971345;28;20034;-71
2023/04/22 04:54:37;;;;;;;11.73;3.97;;;10.30;99.90;;;;;;4970799;28;20513;-71
2023/04/22 04:57:04;;;;;;;7.68;3.17;;;10.40;99.90;;;;;;4971236;28;20046;-70
2023/04/22 04:59:29;;;;;;;4.45;2.40;;;10.40;99.90;;;;;;4972210;28;20035;-70
2023/04/22 05:01:55;;;;;;;5.75;2.65;;;10.40;99.90;;;;;;4971169;28;20410;-70
2023/04/22 05:04:21;;;;;;;7.40;4.15;;;10.50;99.90;;;;;;4971893;28;20027;-70
2023/04/22 05:06:46;;;;;;;6.47;3.03;;;10.50;99.90;;;;;;4971019;28;20080;-70
2023/04/22 05:09:12;;;;;;;10.93;4.80;;;10.60;99.90;;;;;;4972315;28;20033;-70
2023/04/22 05:11:38;;;;;;;6.05;3.28;;;10.50;99.90;;;;;;4970562;28;20026;-70
2023/04/22 05:14:04;;;;;;;8.48;3.28;;;10.60;99.90;;;;;;4967764;28;20027;-70
2023/04/22 05:16:31;;;;;;;9.30;3.80;;;10.40;99.90;;;;;;4967478;28;20023;-70
2023/04/22 05:18:57;;;;;;;10.90;3.28;;;10.50;99.90;;;;;;4970885;28;20399;-71
2023/04/22 05:21:22;;;;;;;8.63;2.67;;;10.50;99.90;;;;;;4970527;28;20035;-70
2023/04/22 05:23:48;;;;;;;9.57;3.70;;;10.60;99.90;;;;;;4971989;28;20027;-69
2023/04/22 05:26:14;;;;;;;5.13;2.90;;;10.60;99.90;;;;;;4962567;28;20036;-69
2023/04/22 05:28:40;;;;;;;4.53;2.33;;;10.70;99.90;;;;;;4971496;28;20031;-72
2023/04/22 05:31:06;;;;;;;3.42;2.15;;;10.80;99.90;;;;;;4969851;28;20113;-70
2023/04/22 05:33:32;;;;;;;4.50;2.45;;;10.80;99.90;;;;;;4971719;28;20117;-71
2023/04/22 05:35:57;;;;;;;5.43;2.83;;;10.90;99.90;;;;;;4970290;28;20054;-71
2023/04/22 05:38:23;;;;;;;8.80;2.00;;;10.80;99.90;;;;;;4971662;28;20034;-70
2023/04/22 05:40:49;;;;;;;5.60;2.30;;;10.90;99.90;;;;;;4964947;28;20082;-70
2023/04/22 05:43:15;;;;;;;3.10;1.48;;;10.90;99.90;;;;;;4968431;28;20174;-69
2023/04/22 05:45:40;;;;;;;3.75;2.17;;;11.00;99.90;;;;;;4970467;28;20031;-70
2023/04/22 05:48:06;;;;;;;3.72;1.92;;;10.90;99.90;;;;;;4971426;28;20054;-70
2023/04/22 05:50:32;;;;;;;4.55;2.17;;;11.00;99.90;;;;;;4967122;28;20037;-70
2023/04/22 05:52:58;;;;;;;4.88;3.03;;;11.00;99.90;;;;;;4967842;28;20076;-70
2023/04/22 05:55:23;;;;;;;3.97;1.65;;;11.00;99.90;;;;;;4960087;28;20030;-71
2023/04/22 05:57:50;;;;;;;2.65;1.50;;;11.00;99.90;;;;;;4964316;28;20092;-69
2023/04/22 06:00:16;;;;;;;5.80;2.53;;;11.00;99.90;;;;;;4970427;28;20125;-70
2023/04/22 06:02:42;;;;;;;6.93;2.22;;;11.00;99.90;;;;;;4970839;28;20035;-69
2023/04/22 06:05:08;;;;;;;3.53;1.98;;;11.00;99.90;;;;;;4966065;28;20039;-69
2023/04/22 06:07:34;;;;;;;3.50;1.85;;;11.00;99.90;;;;;;4971051;28;20053;-68
2023/04/22 06:10:00;;;;;;;11.18;2.53;;;11.10;99.90;;;;;;4965097;28;20483;-68
2023/04/22 06:12:26;;;;;;;2.80;1.58;;;11.10;99.90;;;;;;4964181;28;20030;-70
2023/04/22 06:14:52;;;;;;;17.63;7.38;;;11.20;99.90;;;;;;4967709;28;20494;-69
2023/04/22 06:17:17;;;;;;;7.47;3.17;;;11.30;99.90;;;;;;4970896;28;20406;-69
2023/04/22 06:19:43;;;;;;;5.47;2.85;;;11.40;99.90;;;;;;4970900;28;20023;-68
2023/04/22 06:22:09;;;;;;;3.72;2.05;;;11.40;99.90;;;;;;4970096;28;20039;-68
2023/04/22 06:24:34;;;;;;;3.05;1.67;;;11.40;99.90;;;;;;4970650;28;20471;-68
2023/04/22 06:27:01;;;;;;;4.95;2.20;;;11.50;99.90;;;;;;4970366;28;20113;-67
2023/04/22 06:29:26;;;;;;;4.30;2.05;;;11.60;99.90;;;;;;4970004;28;20027;-67
2023/04/22 06:31:53;;;;;;;5.30;2.47;;;11.70;99.90;;;;;;4965422;28;20058;-67
2023/04/22 06:34:20;;;;;;;4.25;1.98;;;11.90;99.90;;;;;;4969257;28;20451;-68
2023/04/22 06:36:45;;;;;;;3.70;2.20;;;12.00;99.90;;;;;;4969654;28;20035;-68
2023/04/22 06:39:11;;;;;;;4.90;2.50;;;12.10;99.90;;;;;;4971142;28;20482;-68
2023/04/22 06:41:37;;;;;;;4.63;2.28;;;12.20;99.90;;;;;;4970051;28;20491;-69
2023/04/22 06:44:03;;;;;;;3.63;1.80;;;12.30;99.90;;;;;;4974374;28;20031;-69
2023/04/22 06:46:28;;;;;;;4.53;2.17;;;12.40;99.90;;;;;;4972520;28;20037;-70
2023/04/22 06:48:54;;;;;;;4.85;2.05;;;12.50;99.90;;;;;;4974724;28;20102;-69
2023/04/22 06:51:20;;;;;;;3.33;2.05;;;12.60;99.90;;;;;;4973714;28;20031;-70
2023/04/22 06:53:45;;;;;;;3.63;2.03;;;12.70;99.90;;;;;;4974510;28;20027;-70
2023/04/22 06:56:11;;;;;;;4.80;2.38;;;12.70;99.90;;;;;;4973431;28;20110;-68
2023/04/22 06:58:37;;;;;;;4.18;2.40;;;12.70;99.90;;;;;;4974850;28;20045;-68
2023/04/22 07:01:03;;;;;;;6.50;2.35;;;12.70;99.90;;;;;;4972775;28;20031;-68
2023/04/22 07:03:28;;;;;;;5.40;2.65;;;12.90;99.90;;;;;;4972969;28;20494;-69
2023/04/22 07:05:54;;;;;;;3.97;2.00;;;13.10;99.90;;;;;;4973031;28;20057;-68
2023/04/22 07:08:20;;;;;;;5.75;2.75;;;13.20;99.90;;;;;;4972482;28;20023;-69
2023/04/22 07:10:46;;;;;;;4.93;2.60;;;13.20;99.90;;;;;;4973497;28;20419;-68
2023/04/22 07:13:11;;;;;;;7.20;2.45;;;13.30;99.90;;;;;;4973354;28;20114;-68
2023/04/22 07:15:37;;;;;;;6.68;2.22;;;13.30;99.90;;;;;;4972896;28;20391;-68
2023/04/22 07:18:03;;;;;;;3.53;1.70;;;13.40;99.90;;;;;;4973923;28;20518;-68
2023/04/22 07:20:29;;;;;;;5.07;2.75;;;13.60;99.90;;;;;;4973072;28;20069;-69
2023/04/22 07:22:55;;;;;;;4.55;2.08;;;13.60;99.90;;;;;;4973356;28;20039;-68
2023/04/22 07:25:20;;;;;;;4.32;2.47;;;13.70;99.90;;;;;;4972692;28;20035;-68
2023/04/22 07:27:46;;;;;;;4.25;2.42;;;13.80;99.90;;;;;;4973846;28;20490;-68
2023/04/22 07:30:12;;;;;;;5.22;2.47;;;13.80;99.90;;;;;;4971282;28;20127;-68
2023/04/22 07:32:38;;;;;;;4.35;2.35;;;13.90;99.90;;;;;;4973856;28;20101;-67
2023/04/22 07:35:05;;;;;;;5.60;2.53;;;14.00;99.90;;;;;;4973075;28;20110;-67
2023/04/22 07:37:30;;;;;;;4.50;2.03;;;14.10;99.90;;;;;;4974002;28;20027;-68
2023/04/22 07:39:56;;;;;;;3.97;2.13;;;14.20;99.90;;;;;;4973103;28;20056;-68
2023/04/22 07:42:22;;;;;;;3.53;1.95;;;14.40;99.90;;;;;;4972976;28;20039;-68
2023/04/22 07:44:48;;;;;;;5.05;2.53;;;14.50;99.90;;;;;;4971871;28;20122;-67
2023/04/22 07:47:13;;;;;;;4.28;2.13;;;14.70;99.90;;;;;;4962802;28;20066;-68
2023/04/22 07:49:39;;;;;;;3.22;1.63;;;14.90;99.90;;;;;;4972119;28;20076;-67
2023/04/22 07:52:05;;;;;;;3.70;2.15;;;15.00;99.90;;;;;;4971151;28;20089;-67
2023/04/22 07:54:30;;;;;;;3.50;1.70;;;15.20;99.90;;;;;;4971523;28;20042;-68
2023/04/22 07:56:57;;;;;;;3.22;1.60;;;15.20;99.90;;;;;;4970812;28;20077;-68
2023/04/22 07:59:23;;;;;;;2.10;1.50;;;15.40;99.90;;;;;;4973162;28;20034;-68
2023/04/22 08:01:49;;;;;;;4.20;1.98;;;15.40;99.90;;;;;;4972650;28;20031;-68
2023/04/22 08:04:15;;;;;;;4.55;1.88;;;15.60;99.90;;;;;;4973145;28;20046;-68
2023/04/22 08:06:40;;;;;;;4.03;1.85;;;15.70;99.90;;;;;;4972015;28;20125;-68
2023/04/22 08:09:06;;;;;;;3.70;1.88;;;15.70;99.90;;;;;;4973310;28;20062;-68
2023/04/22 08:11:32;;;;;;;12.73;1.70;;;15.80;99.90;;;;;;4969294;28;20102;-67
2023/04/22 08:13:58;;;;;;;3.53;1.63;;;15.90;99.90;;;;;;4968644;28;20019;-67
2023/04/22 08:16:23;;;;;;;2.58;1.50;;;16.10;99.90;;;;;;4972244;28;20514;-67
2023/04/22 08:18:51;;;;;;;4.07;1.80;;;16.20;99.90;;;;;;4973345;28;20419;-68
2023/04/22 08:21:16;;;;;;;1.80;1.13;;;16.20;99.90;;;;;;4971873;28;20034;-67
2023/04/22 08:23:42;;;;;;;6.72;2.45;;;16.30;99.90;;;;;;4972621;28;20034;-67
2023/04/22 08:26:10;;;;;;;1.55;1.00;;;16.40;99.90;;;;;;4972061;28;20034;-67
2023/04/22 08:28:36;;;;;;;3.40;1.20;;;16.60;99.90;;;;;;4971944;28;20027;-68
2023/04/22 08:31:02;;;;;;;2.63;1.42;;;16.60;99.90;;;;;;4971711;28;20439;-68
2023/04/22 08:33:28;;;;;;;3.35;1.55;;;16.70;99.90;;;;;;4972386;28;20458;-68
2023/04/22 08:35:54;;;;;;;2.15;1.35;;;16.60;99.90;;;;;;4969961;28;20496;-68
2023/04/22 08:38:19;;;;;;;1.90;1.15;;;16.70;99.90;;;;;;4972684;28;20034;-68
2023/04/22 08:40:46;;;;;;;3.22;1.20;;;16.80;99.90;;;;;;4971792;28;20041;-68
2023/04/22 08:43:12;;;;;;;5.53;1.17;;;16.80;99.90;;;;;;4972249;28;20086;-68
2023/04/22 08:45:39;;;;;;;2.53;1.38;;;16.70;99.90;;;;;;4971504;28;20057;-68
2023/04/22 08:48:08;;;;;;;2.53;1.08;;;16.60;99.90;;;;;;4971223;28;20594;-68
2023/04/22 08:50:38;;;;;;;2.55;1.52;;;16.70;99.90;;;;;;4971548;28;20027;-68
2023/04/22 08:53:03;;;;;;;7.30;1.23;;;16.80;99.90;;;;;;4971868;28;20031;-69
2023/04/22 08:55:30;;;;;;;2.05;1.20;;;17.10;99.90;;;;;;4971294;28;20109;-68
2023/04/22 08:57:59;;;;;;;2.25;1.33;;;17.20;99.90;;;;;;4971264;28;20466;-67
2023/04/22 09:00:26;;;;;;;2.25;1.35;;;17.40;99.90;;;;;;4971381;28;20037;-67
2023/04/22 09:02:52;;;;;;;2.90;1.50;;;17.50;99.90;;;;;;4971859;28;20440;-68
2023/04/22 09:07:56;;;;;;;2.97;1.42;;;17.80;99.90;;;;;;4948985;29;20059;-68
2023/04/22 09:10:22;;;;;;;2.97;1.58;;;18.00;99.90;;;;;;4952680;29;20038;-68
2023/04/22 09:12:49;;;;;;;5.82;1.60;;;17.80;99.90;;;;;;4944341;29;20043;-68
2023/04/22 09:15:15;;;;;;;3.55;1.60;;;18.00;99.90;;;;;;4950417;29;20023;-68
2023/04/22 09:17:42;;;;;;;3.80;1.80;;;18.00;99.90;;;;;;4947135;29;20085;-68
2023/04/22 09:20:08;;;;;;;1.77;1.10;;;18.20;99.90;;;;;;4952708;29;20471;-68
2023/04/22 09:22:42;;;;;;;5.38;1.98;;;18.10;99.90;;;;;;4954939;28;20062;-68
2023/04/22 09:25:37;;;;;;;4.97;1.98;;;18.20;99.90;;;;;;4952586;28;20035;-68
2023/04/22 09:28:03;;;;;;;3.63;1.40;;;18.10;99.90;;;;;;4946523;28;20049;-68
2023/04/22 09:30:37;;;;;;;2.97;1.73;;;18.10;99.90;;;;;;4952256;28;20031;-67
2023/04/22 09:33:06;;;;;;;2.53;1.42;;;18.10;99.90;;;;;;4949386;29;20042;-68
2023/04/22 09:35:32;;;;;;;3.75;1.65;;;18.60;99.90;;;;;;4951801;28;20069;-68
2023/04/22 09:38:01;;;;;;;3.58;1.73;;;18.60;99.90;;;;;;4948938;29;20557;-67
2023/04/22 09:40:30;;;;;;;7.85;2.00;;;18.40;99.90;;;;;;4952085;28;20043;-68
2023/04/22 09:43:00;;;;;;;3.40;1.30;;;18.40;99.90;;;;;;4950604;29;20024;-68
2023/04/22 09:45:28;;;;;;;4.33;1.90;;;18.60;99.90;;;;;;4931836;29;20035;-67
2023/04/22 09:47:58;;;;;;;3.90;1.30;;;18.80;99.90;;;;;;4922198;29;20295;-68
2023/04/22 09:50:26;;;;;;;5.82;1.98;;;19.00;99.90;;;;;;4942750;29;20026;-68
2023/04/22 09:53:00;;;;;;;5.35;2.00;;;18.90;99.90;;;;;;4953694;28;20387;-67
2023/04/22 09:55:29;;;;;;;3.08;1.60;;;18.90;99.90;;;;;;4945940;28;20031;-67
2023/04/22 09:57:56;;;;;;;3.05;1.45;;;18.80;99.90;;;;;;4950157;29;20038;-67
2023/04/22 10:00:27;;;;;;;2.97;2.10;;;19.00;99.90;;;;;;4966272;28;20137;-67
2023/04/22 10:02:53;;;;;;;3.17;1.30;;;18.80;99.90;;;;;;4951277;29;20032;-67
2023/04/22 10:05:19;;;;;;;3.90;1.80;;;18.90;99.90;;;;;;4952601;28;20085;-67
2023/04/22 10:07:45;;;;;;;4.65;1.73;;;18.90;99.90;;;;;;4949813;28;20034;-67
2023/04/22 10:10:11;;;;;;;2.60;1.50;;;19.00;99.90;;;;;;4952081;29;20039;-68
2023/04/22 10:12:37;;;;;;;2.25;1.27;;;19.10;99.90;;;;;;4948081;29;20035;-66
2023/04/22 10:15:05;;;;;;;3.35;1.38;;;19.30;99.90;;;;;;4950841;29;20062;-67
2023/04/22 10:17:36;;;;;;;2.10;1.20;;;19.60;99.90;;;;;;4949617;28;20024;-68
2023/04/22 10:20:12;;;;;;;1.92;1.15;;;19.70;99.90;;;;;;4953458;28;20034;-68
2023/04/22 10:22:41;;;;;;;2.88;1.27;;;19.90;99.90;;;;;;4951876;29;20730;-68
2023/04/22 10:25:24;;;;;;;2.33;1.20;;;20.10;99.90;;;;;;4955953;29;20039;-68
2023/04/22 10:28:02;;;;;;;3.22;1.27;;;20.40;99.90;;;;;;4950681;29;20549;-69
2023/04/22 10:30:37;;;;;;;2.33;1.20;;;20.50;99.90;;;;;;4935394;29;20512;-67
2023/04/22 10:33:30;;;;;;;1.67;1.10;;;20.60;96.90;;;;;;4951679;29;20023;-68
2023/04/22 10:36:15;;;;;;;3.75;1.15;;;20.70;96.40;;;;;;4956957;28;20078;-69
2023/04/22 10:38:53;;;;;;;1.73;1.00;;;20.90;96.50;;;;;;4950547;29;20082;-68
2023/04/22 10:41:37;;;;;;;2.25;1.10;;;21.00;94.30;;;;;;4951664;29;20376;-68
2023/04/22 10:44:07;;;;;;;1.33;0.80;;;21.00;95.40;;;;;;4953591;29;20483;-68
2023/04/22 10:46:33;;;;;;;3.17;1.27;;;20.70;95.90;;;;;;4950097;29;20046;-68
2023/04/22 10:49:07;;;;;;;2.92;1.10;;;20.90;95.70;;;;;;4953494;29;20035;-69
2023/04/22 10:51:44;;;;;;;1.05;0.82;;;20.70;95.20;;;;;;4951709;28;20035;-69
2023/04/22 10:54:28;;;;;;;1.60;0.93;;;20.70;95.40;;;;;;4962098;28;20181;-68
2023/04/22 10:57:07;;;;;;;1.98;1.00;;;20.80;95.20;;;;;;4950147;29;20031;-68
2023/04/22 10:59:47;;;;;;;1.50;0.90;;;21.10;94.10;;;;;;4948949;29;20027;-68
2023/04/22 11:02:15;;;;;;;2.22;1.23;;;21.40;92.20;;;;;;4955740;28;20031;-69
2023/04/22 11:04:41;;;;;;;2.05;1.27;;;21.80;92.60;;;;;;4964367;28;20105;-61
2023/04/22 11:07:21;;;;;;;2.08;0.65;;;21.90;91.70;;;;;;4949634;29;20402;-59
2023/04/22 11:10:09;;;;;;;0.88;0.60;;;22.20;85.60;;;;;;4955537;29;20042;-60
2023/04/22 11:12:38;;;;;;;5.50;1.65;;;22.00;86.10;;;;;;4949489;29;20184;-54
2023/04/22 11:15:21;;;;;;;1.55;0.88;;;21.80;83.80;;;;;;4955468;29;20130;-59
2023/04/22 11:17:52;;;;;;;1.02;0.57;;;21.90;86.80;;;;;;4951419;28;20078;-57
2023/04/22 11:20:19;;;;;;;1.83;0.93;;;21.90;85.20;;;;;;4953102;29;20039;-58
2023/04/22 11:22:50;;;;;;;3.10;1.25;;;22.00;86.60;;;;;;4950712;29;20031;-59
2023/04/22 11:25:16;;;;;;;3.65;1.20;;;22.10;84.00;;;;;;4968372;28;20035;-57
2023/04/22 11:27:43;;;;;;;2.45;1.00;;;22.10;84.60;;;;;;4949734;28;20042;-56
2023/04/22 11:30:14;;;;;;;2.78;0.90;;;21.90;87.40;;;;;;4952842;29;20118;-57
2023/04/22 11:32:44;;;;;;;8.77;1.00;;;22.30;85.00;;;;;;4957499;28;20039;-59
2023/04/22 11:35:16;;;;;;;1.30;0.93;;;22.50;84.20;;;;;;4967553;28;20450;-58
2023/04/22 11:37:47;;;;;;;1.63;0.90;;;22.80;83.50;;;;;;4950518;29;20046;-60
2023/04/22 11:40:20;;;;;;;4.00;0.95;;;23.10;83.00;;;;;;4954818;28;20042;-58
2023/04/22 11:42:47;;;;;;;0.73;0.50;;;22.80;80.30;;;;;;4957214;28;20277;-59
2023/04/22 11:45:15;;;;;;;2.65;0.82;;;23.10;82.70;;;;;;4954213;29;20162;-59
2023/04/22 11:47:41;;;;;;;0.93;0.68;;;23.30;80.30;;;;;;4946890;28;20114;-59
2023/04/22 11:50:12;;;;;;;1.77;0.80;;;23.30;77.00;;;;;;4967371;28;20031;-59
2023/04/22 11:52:44;;;;;;;1.23;0.55;;;23.10;77.10;;;;;;4949213;29;20143;-59
2023/04/22 11:55:34;;;;;;;1.77;0.93;;;22.90;78.90;;;;;;4967551;28;20038;-70
2023/04/22 11:58:25;;;;;;;1.60;0.80;;;23.20;76.80;;;;;;4947910;29;20554;-69
2023/04/22 12:00:53;;;;;;;1.90;1.05;;;23.30;77.80;;;;;;4944189;29;20040;-68
2023/04/22 12:03:23;;;;;;;0.60;0.50;;;23.70;76.40;;;;;;4951116;29;20047;-71
2023/04/22 12:05:59;;;;;;;1.48;0.63;;;23.80;72.10;;;;;;4947518;29;20037;-71
2023/04/22 12:08:30;;;;;;;0.80;0.40;;;23.20;72.10;;;;;;4936214;29;20045;-71
2023/04/22 12:11:01;;;;;;;3.60;1.10;;;22.90;72.40;;;;;;4947097;29;20446;-71
2023/04/22 12:13:40;;;;;;;1.10;0.73;;;23.10;73.40;;;;;;4941130;29;20054;-71
2023/04/22 12:16:12;;;;;;;2.83;0.77;;;23.10;72.00;;;;;;4949823;29;20094;-72
2023/04/22 12:18:49;;;;;;;1.23;0.75;;;23.70;74.50;;;;;;4951763;29;20073;-71
2023/04/22 12:21:22;;;;;;;1.75;1.08;;;24.10;71.00;;;;;;4952851;29;20031;-71
2023/04/22 12:24:03;;;;;;;2.05;1.20;;;23.70;70.60;;;;;;4953423;28;20498;-70
2023/04/22 12:26:29;;;;;;;1.83;0.88;;;23.30;72.40;;;;;;4945719;29;20432;-71
2023/04/22 12:28:58;;;;;;;3.40;1.17;;;22.80;72.10;;;;;;4953488;28;20035;-71
2023/04/22 12:31:24;;;;;;;1.80;0.80;;;22.60;73.20;;;;;;4936843;29;20090;-71
2023/04/22 12:33:49;;;;;;;0.82;0.57;;;22.40;75.10;;;;;;4945912;29;20094;-72
2023/04/22 12:36:19;;;;;;;5.72;1.00;;;22.40;70.90;;;;;;4952464;29;20039;-72
2023/04/22 12:38:45;;;;;;;2.58;0.75;;;21.80;72.20;;;;;;4946636;28;20180;-71
2023/04/22 12:41:11;;;;;;;2.30;1.27;;;21.70;71.90;;;;;;4951517;28;20031;-71
2023/04/22 12:43:38;;;;;;;1.60;0.70;;;21.50;72.60;;;;;;4952818;28;20102;-71
2023/04/22 12:46:06;;;;;;;1.27;0.80;;;21.50;73.60;;;;;;4953299;29;20109;-72
2023/04/22 12:48:32;;;;;;;2.05;0.95;;;21.50;73.20;;;;;;4947884;28;20302;-71
2023/04/22 12:50:59;;;;;;;1.58;0.88;;;21.40;74.00;;;;;;4950124;29;20035;-71